sensor_id;sensor_type;location;lat;lon;timestamp;temperature;humidity
11256;HTU21D;5685;52.384;13.420;2022-07-17T00:00:04;22.90;95.30
11256;HTU21D;5685;52.384;13.420;2022-07-17T00:03:07;23.00;95.30
11256;HTU21D;5685;52.384;13.420;2022-07-17T00:06:10;23.00;95.40
11256;HTU21D;5685;52.384;13.420;2022-07-17T00:09:13;23.00;95.30
11256;HTU21D;5685;52.384;13.420;2022-07-17T00:12:15;23.00;95.20
11256;HTU21D;5685;52.384;13.420;2022-07-17T00:15:17;23.00;95.20
11256;HTU21D;5685;52.384;13.420;2022-07-17T00:18:20;22.90;95.20
11256;HTU21D;5685;52.384;13.420;2022-07-17T00:21:23;23.00;95.20
11256;HTU21D;5685;52.384;13.420;2022-07-17T00:24:26;23.00;95.20
11256;HTU21D;5685;52.384;13.420;2022-07-17T00:27:28;22.90;95.10
11256;HTU21D;5685;52.384;13.420;2022-07-17T00:30:30;23.00;95.20
11256;HTU21D;5685;52.384;13.420;2022-07-17T00:33:33;22.90;95.10
11256;HTU21D;5685;52.384;13.420;2022-07-17T00:36:36;22.90;95.00
11256;HTU21D;5685;52.384;13.420;2022-07-17T00:39:38;23.00;95.10
11256;HTU21D;5685;52.384;13.420;2022-07-17T00:42:41;22.90;95.00
11256;HTU21D;5685;52.384;13.420;2022-07-17T00:45:43;22.90;95.00
11256;HTU21D;5685;52.384;13.420;2022-07-17T00:48:46;22.90;95.00
11256;HTU21D;5685;52.384;13.420;2022-07-17T00:51:49;22.90;95.00
11256;HTU21D;5685;52.384;13.420;2022-07-17T00:54:52;22.90;94.90
11256;HTU21D;5685;52.384;13.420;2022-07-17T00:57:55;22.90;94.90
11256;HTU21D;5685;52.384;13.420;2022-07-17T01:00:58;22.90;94.90
11256;HTU21D;5685;52.384;13.420;2022-07-17T01:04:00;22.90;94.90
11256;HTU21D;5685;52.384;13.420;2022-07-17T01:07:05;22.90;94.90
11256;HTU21D;5685;52.384;13.420;2022-07-17T01:10:08;22.90;94.80
11256;HTU21D;5685;52.384;13.420;2022-07-17T01:13:10;22.90;94.80
11256;HTU21D;5685;52.384;13.420;2022-07-17T01:19:18;22.90;94.80
11256;HTU21D;5685;52.384;13.420;2022-07-17T01:22:22;22.90;94.70
11256;HTU21D;5685;52.384;13.420;2022-07-17T01:25:25;22.90;94.70
11256;HTU21D;5685;52.384;13.420;2022-07-17T01:28:27;22.90;94.60
11256;HTU21D;5685;52.384;13.420;2022-07-17T01:31:31;22.90;94.70
11256;HTU21D;5685;52.384;13.420;2022-07-17T01:34:33;22.90;94.70
11256;HTU21D;5685;52.384;13.420;2022-07-17T01:37:37;22.90;94.70
11256;HTU21D;5685;52.384;13.420;2022-07-17T01:40:39;22.90;94.70
11256;HTU21D;5685;52.384;13.420;2022-07-17T01:43:41;22.90;94.70
11256;HTU21D;5685;52.384;13.420;2022-07-17T01:46:43;22.90;94.70
11256;HTU21D;5685;52.384;13.420;2022-07-17T01:49:47;22.90;94.70
11256;HTU21D;5685;52.384;13.420;2022-07-17T01:52:52;22.90;94.60
11256;HTU21D;5685;52.384;13.420;2022-07-17T01:55:54;22.80;94.60
11256;HTU21D;5685;52.384;13.420;2022-07-17T01:58:56;22.80;94.70
11256;HTU21D;5685;52.384;13.420;2022-07-17T02:01:58;22.80;94.60
11256;HTU21D;5685;52.384;13.420;2022-07-17T02:05:01;22.80;94.60
11256;HTU21D;5685;52.384;13.420;2022-07-17T02:08:05;22.80;94.60
11256;HTU21D;5685;52.384;13.420;2022-07-17T02:11:07;22.80;94.60
11256;HTU21D;5685;52.384;13.420;2022-07-17T02:14:09;22.80;94.60
11256;HTU21D;5685;52.384;13.420;2022-07-17T02:17:12;22.80;94.60
11256;HTU21D;5685;52.384;13.420;2022-07-17T02:20:14;22.80;94.50
11256;HTU21D;5685;52.384;13.420;2022-07-17T02:23:18;22.80;94.60
11256;HTU21D;5685;52.384;13.420;2022-07-17T02:26:20;22.80;94.50
11256;HTU21D;5685;52.384;13.420;2022-07-17T02:29:22;22.80;94.60
11256;HTU21D;5685;52.384;13.420;2022-07-17T02:32:24;22.80;94.50
11256;HTU21D;5685;52.384;13.420;2022-07-17T02:35:26;22.80;94.40
11256;HTU21D;5685;52.384;13.420;2022-07-17T02:38:30;22.80;94.50
11256;HTU21D;5685;52.384;13.420;2022-07-17T02:41:32;22.80;94.70
11256;HTU21D;5685;52.384;13.420;2022-07-17T02:44:35;22.70;94.40
11256;HTU21D;5685;52.384;13.420;2022-07-17T02:47:37;22.70;94.40
11256;HTU21D;5685;52.384;13.420;2022-07-17T02:50:39;22.70;94.40
11256;HTU21D;5685;52.384;13.420;2022-07-17T02:53:43;22.70;94.40
11256;HTU21D;5685;52.384;13.420;2022-07-17T02:56:45;22.70;94.30
11256;HTU21D;5685;52.384;13.420;2022-07-17T02:59:48;22.70;94.40
11256;HTU21D;5685;52.384;13.420;2022-07-17T03:02:50;22.70;94.40
11256;HTU21D;5685;52.384;13.420;2022-07-17T03:05:52;22.70;94.30
11256;HTU21D;5685;52.384;13.420;2022-07-17T03:08:56;22.70;94.40
11256;HTU21D;5685;52.384;13.420;2022-07-17T03:11:58;22.70;94.30
11256;HTU21D;5685;52.384;13.420;2022-07-17T03:15:00;22.70;94.30
11256;HTU21D;5685;52.384;13.420;2022-07-17T03:18:02;22.70;94.30
11256;HTU21D;5685;52.384;13.420;2022-07-17T03:21:05;22.70;94.30
11256;HTU21D;5685;52.384;13.420;2022-07-17T03:24:09;22.60;94.30
11256;HTU21D;5685;52.384;13.420;2022-07-17T03:27:11;22.60;94.20
11256;HTU21D;5685;52.384;13.420;2022-07-17T03:30:13;22.60;94.20
11256;HTU21D;5685;52.384;13.420;2022-07-17T03:33:16;22.60;94.20
11256;HTU21D;5685;52.384;13.420;2022-07-17T03:36:18;22.60;94.20
11256;HTU21D;5685;52.384;13.420;2022-07-17T03:39:22;22.60;94.10
11256;HTU21D;5685;52.384;13.420;2022-07-17T03:42:24;22.60;94.20
11256;HTU21D;5685;52.384;13.420;2022-07-17T03:45:26;22.60;94.20
11256;HTU21D;5685;52.384;13.420;2022-07-17T03:48:28;22.60;94.10
11256;HTU21D;5685;52.384;13.420;2022-07-17T03:51:31;22.60;94.10
11256;HTU21D;5685;52.384;13.420;2022-07-17T03:54:34;22.60;94.20
11256;HTU21D;5685;52.384;13.420;2022-07-17T03:57:36;22.60;94.00
11256;HTU21D;5685;52.384;13.420;2022-07-17T04:00:38;22.60;93.90
11256;HTU21D;5685;52.384;13.420;2022-07-17T04:03:41;22.60;94.00
11256;HTU21D;5685;52.384;13.420;2022-07-17T04:06:43;22.60;94.50
11256;HTU21D;5685;52.384;13.420;2022-07-17T04:09:46;22.50;94.10
11256;HTU21D;5685;52.384;13.420;2022-07-17T04:12:48;22.50;94.00
11256;HTU21D;5685;52.384;13.420;2022-07-17T04:15:51;22.50;93.90
11256;HTU21D;5685;52.384;13.420;2022-07-17T04:18:57;22.50;93.90
11256;HTU21D;5685;52.384;13.420;2022-07-17T04:21:59;22.50;93.90
11256;HTU21D;5685;52.384;13.420;2022-07-17T04:25:03;22.50;93.90
11256;HTU21D;5685;52.384;13.420;2022-07-17T04:28:06;22.50;93.90
11256;HTU21D;5685;52.384;13.420;2022-07-17T04:31:08;22.50;93.80
11256;HTU21D;5685;52.384;13.420;2022-07-17T04:34:10;22.50;93.90
11256;HTU21D;5685;52.384;13.420;2022-07-17T04:37:13;22.50;93.70
11256;HTU21D;5685;52.384;13.420;2022-07-17T04:40:16;22.50;93.70
11256;HTU21D;5685;52.384;13.420;2022-07-17T04:43:18;22.50;93.80
11256;HTU21D;5685;52.384;13.420;2022-07-17T04:46:21;22.50;93.90
11256;HTU21D;5685;52.384;13.420;2022-07-17T04:49:23;22.50;93.70
11256;HTU21D;5685;52.384;13.420;2022-07-17T04:52:25;22.50;93.70
11256;HTU21D;5685;52.384;13.420;2022-07-17T04:55:30;22.50;93.70
11256;HTU21D;5685;52.384;13.420;2022-07-17T04:58:32;22.50;93.60
11256;HTU21D;5685;52.384;13.420;2022-07-17T05:01:34;22.50;93.60
11256;HTU21D;5685;52.384;13.420;2022-07-17T05:04:36;22.40;93.60
11256;HTU21D;5685;52.384;13.420;2022-07-17T05:07:39;22.40;93.60
11256;HTU21D;5685;52.384;13.420;2022-07-17T05:10:43;22.40;93.70
11256;HTU21D;5685;52.384;13.420;2022-07-17T05:13:45;22.40;93.70
11256;HTU21D;5685;52.384;13.420;2022-07-17T05:16:47;22.40;93.70
11256;HTU21D;5685;52.384;13.420;2022-07-17T05:19:50;22.40;93.60
11256;HTU21D;5685;52.384;13.420;2022-07-17T05:22:52;22.40;93.70
11256;HTU21D;5685;52.384;13.420;2022-07-17T05:25:56;22.40;93.50
11256;HTU21D;5685;52.384;13.420;2022-07-17T05:28:58;22.40;93.40
11256;HTU21D;5685;52.384;13.420;2022-07-17T05:32:00;22.40;93.40
11256;HTU21D;5685;52.384;13.420;2022-07-17T05:35:03;22.30;93.50
11256;HTU21D;5685;52.384;13.420;2022-07-17T05:38:06;22.30;93.50
11256;HTU21D;5685;52.384;13.420;2022-07-17T05:41:10;22.30;93.50
11256;HTU21D;5685;52.384;13.420;2022-07-17T05:44:12;22.30;93.40
11256;HTU21D;5685;52.384;13.420;2022-07-17T05:47:14;22.30;93.50
11256;HTU21D;5685;52.384;13.420;2022-07-17T05:50:16;22.30;93.60
11256;HTU21D;5685;52.384;13.420;2022-07-17T05:53:18;22.30;93.60
11256;HTU21D;5685;52.384;13.420;2022-07-17T05:56:22;22.30;93.60
11256;HTU21D;5685;52.384;13.420;2022-07-17T05:59:24;22.30;93.70
11256;HTU21D;5685;52.384;13.420;2022-07-17T06:02:27;22.30;93.60
11256;HTU21D;5685;52.384;13.420;2022-07-17T06:05:29;22.30;94.10
11256;HTU21D;5685;52.384;13.420;2022-07-17T06:08:31;22.30;94.40
11256;HTU21D;5685;52.384;13.420;2022-07-17T06:11:35;22.30;94.50
11256;HTU21D;5685;52.384;13.420;2022-07-17T06:14:37;22.30;94.70
11256;HTU21D;5685;52.384;13.420;2022-07-17T06:17:39;22.30;94.80
11256;HTU21D;5685;52.384;13.420;2022-07-17T06:20:42;22.30;94.80
11256;HTU21D;5685;52.384;13.420;2022-07-17T06:23:44;22.30;94.90
11256;HTU21D;5685;52.384;13.420;2022-07-17T06:26:47;22.30;94.90
11256;HTU21D;5685;52.384;13.420;2022-07-17T06:29:51;22.30;95.00
11256;HTU21D;5685;52.384;13.420;2022-07-17T06:32:53;22.30;95.10
11256;HTU21D;5685;52.384;13.420;2022-07-17T06:35:55;22.30;95.10
11256;HTU21D;5685;52.384;13.420;2022-07-17T06:38:57;22.30;95.10
11256;HTU21D;5685;52.384;13.420;2022-07-17T06:42:01;22.20;94.90
11256;HTU21D;5685;52.384;13.420;2022-07-17T06:45:04;22.20;94.80
11256;HTU21D;5685;52.384;13.420;2022-07-17T06:48:07;22.10;94.30
11256;HTU21D;5685;52.384;13.420;2022-07-17T06:51:09;22.00;94.20
11256;HTU21D;5685;52.384;13.420;2022-07-17T06:54:12;21.90;94.40
11256;HTU21D;5685;52.384;13.420;2022-07-17T06:57:15;21.90;94.40
11256;HTU21D;5685;52.384;13.420;2022-07-17T07:00:18;21.80;94.20
11256;HTU21D;5685;52.384;13.420;2022-07-17T07:03:20;21.60;94.10
11256;HTU21D;5685;52.384;13.420;2022-07-17T07:06:22;21.50;94.30
11256;HTU21D;5685;52.384;13.420;2022-07-17T07:09:24;21.40;94.20
11256;HTU21D;5685;52.384;13.420;2022-07-17T07:12:28;21.40;94.40
11256;HTU21D;5685;52.384;13.420;2022-07-17T07:15:31;21.30;94.50
11256;HTU21D;5685;52.384;13.420;2022-07-17T07:18:33;21.30;94.70
11256;HTU21D;5685;52.384;13.420;2022-07-17T07:21:35;21.20;94.70
11256;HTU21D;5685;52.384;13.420;2022-07-17T07:24:38;21.20;94.80
11256;HTU21D;5685;52.384;13.420;2022-07-17T07:27:42;21.10;95.00
11256;HTU21D;5685;52.384;13.420;2022-07-17T07:30:44;21.10;95.10
11256;HTU21D;5685;52.384;13.420;2022-07-17T07:33:46;21.00;95.30
11256;HTU21D;5685;52.384;13.420;2022-07-17T07:36:49;21.00;95.50
11256;HTU21D;5685;52.384;13.420;2022-07-17T07:39:51;21.00;95.60
11256;HTU21D;5685;52.384;13.420;2022-07-17T07:42:54;21.00;95.50
11256;HTU21D;5685;52.384;13.420;2022-07-17T07:45:57;21.00;95.60
11256;HTU21D;5685;52.384;13.420;2022-07-17T07:48:59;21.00;95.60
11256;HTU21D;5685;52.384;13.420;2022-07-17T07:52:02;21.00;95.60
11256;HTU21D;5685;52.384;13.420;2022-07-17T07:55:05;21.00;95.50
11256;HTU21D;5685;52.384;13.420;2022-07-17T07:58:11;20.90;95.60
11256;HTU21D;5685;52.384;13.420;2022-07-17T08:01:14;20.90;95.70
11256;HTU21D;5685;52.384;13.420;2022-07-17T08:04:16;20.90;95.80
11256;HTU21D;5685;52.384;13.420;2022-07-17T08:07:19;20.80;96.00
11256;HTU21D;5685;52.384;13.420;2022-07-17T08:10:21;20.80;96.10
11256;HTU21D;5685;52.384;13.420;2022-07-17T08:13:24;20.80;96.40
11256;HTU21D;5685;52.384;13.420;2022-07-17T08:16:26;20.80;96.20
11256;HTU21D;5685;52.384;13.420;2022-07-17T08:19:28;20.80;96.00
11256;HTU21D;5685;52.384;13.420;2022-07-17T08:22:31;20.80;95.90
11256;HTU21D;5685;52.384;13.420;2022-07-17T08:25:34;20.70;96.10
11256;HTU21D;5685;52.384;13.420;2022-07-17T08:28:38;20.70;96.10
11256;HTU21D;5685;52.384;13.420;2022-07-17T08:31:40;20.70;96.20
11256;HTU21D;5685;52.384;13.420;2022-07-17T08:34:42;20.70;96.50
11256;HTU21D;5685;52.384;13.420;2022-07-17T08:37:46;20.70;96.40
11256;HTU21D;5685;52.384;13.420;2022-07-17T08:40:50;20.70;96.40
11256;HTU21D;5685;52.384;13.420;2022-07-17T08:43:55;20.70;96.50
11256;HTU21D;5685;52.384;13.420;2022-07-17T08:46:58;20.70;96.50
11256;HTU21D;5685;52.384;13.420;2022-07-17T08:50:02;20.70;96.50
11256;HTU21D;5685;52.384;13.420;2022-07-17T08:53:05;20.60;96.40
11256;HTU21D;5685;52.384;13.420;2022-07-17T08:56:07;20.60;96.40
11256;HTU21D;5685;52.384;13.420;2022-07-17T08:59:11;20.60;96.30
11256;HTU21D;5685;52.384;13.420;2022-07-17T09:02:14;20.60;96.60
11256;HTU21D;5685;52.384;13.420;2022-07-17T09:05:20;20.60;96.10
11256;HTU21D;5685;52.384;13.420;2022-07-17T09:08:23;20.60;96.10
11256;HTU21D;5685;52.384;13.420;2022-07-17T09:11:27;20.70;96.20
11256;HTU21D;5685;52.384;13.420;2022-07-17T09:14:38;20.70;96.10
11256;HTU21D;5685;52.384;13.420;2022-07-17T09:17:47;20.70;96.10
11256;HTU21D;5685;52.384;13.420;2022-07-17T09:20:52;20.70;95.90
11256;HTU21D;5685;52.384;13.420;2022-07-17T09:23:59;20.70;95.90
11256;HTU21D;5685;52.384;13.420;2022-07-17T09:27:01;20.80;95.90
11256;HTU21D;5685;52.384;13.420;2022-07-17T09:30:06;20.80;95.90
11256;HTU21D;5685;52.384;13.420;2022-07-17T09:33:13;20.80;95.80
11256;HTU21D;5685;52.384;13.420;2022-07-17T09:36:18;20.80;95.80
11256;HTU21D;5685;52.384;13.420;2022-07-17T09:39:20;20.80;95.80
11256;HTU21D;5685;52.384;13.420;2022-07-17T09:42:27;20.90;95.80
11256;HTU21D;5685;52.384;13.420;2022-07-17T09:45:32;20.90;95.90
11256;HTU21D;5685;52.384;13.420;2022-07-17T09:48:41;20.90;95.90
11256;HTU21D;5685;52.384;13.420;2022-07-17T09:51:47;20.90;95.80
11256;HTU21D;5685;52.384;13.420;2022-07-17T09:54:52;20.90;95.80
11256;HTU21D;5685;52.384;13.420;2022-07-17T09:57:56;20.90;95.70
11256;HTU21D;5685;52.384;13.420;2022-07-17T10:01:02;20.90;95.80
11256;HTU21D;5685;52.384;13.420;2022-07-17T10:04:04;20.90;95.80
11256;HTU21D;5685;52.384;13.420;2022-07-17T10:07:07;20.90;95.70
11256;HTU21D;5685;52.384;13.420;2022-07-17T10:10:10;20.90;95.80
11256;HTU21D;5685;52.384;13.420;2022-07-17T10:13:13;20.90;95.90
11256;HTU21D;5685;52.384;13.420;2022-07-17T10:16:25;20.90;95.90
11256;HTU21D;5685;52.384;13.420;2022-07-17T10:19:27;20.90;95.90
11256;HTU21D;5685;52.384;13.420;2022-07-17T10:22:40;20.90;95.90
11256;HTU21D;5685;52.384;13.420;2022-07-17T10:25:43;20.90;96.00
11256;HTU21D;5685;52.384;13.420;2022-07-17T10:28:47;21.00;96.10
11256;HTU21D;5685;52.384;13.420;2022-07-17T10:31:52;21.00;96.10
11256;HTU21D;5685;52.384;13.420;2022-07-17T10:34:58;21.00;96.10
11256;HTU21D;5685;52.384;13.420;2022-07-17T10:38:09;21.00;96.40
11256;HTU21D;5685;52.384;13.420;2022-07-17T10:41:19;21.00;96.20
11256;HTU21D;5685;52.384;13.420;2022-07-17T10:44:24;21.00;96.20
11256;HTU21D;5685;52.384;13.420;2022-07-17T10:47:29;21.00;96.20
11256;HTU21D;5685;52.384;13.420;2022-07-17T10:50:33;21.00;96.30
11256;HTU21D;5685;52.384;13.420;2022-07-17T10:53:37;21.00;96.20
11256;HTU21D;5685;52.384;13.420;2022-07-17T10:56:39;21.00;96.40
11256;HTU21D;5685;52.384;13.420;2022-07-17T10:59:43;21.00;96.40
11256;HTU21D;5685;52.384;13.420;2022-07-17T11:02:47;21.00;96.40
11256;HTU21D;5685;52.384;13.420;2022-07-17T11:05:49;21.00;96.40
11256;HTU21D;5685;52.384;13.420;2022-07-17T11:08:53;21.10;96.50
11256;HTU21D;5685;52.384;13.420;2022-07-17T11:11:57;21.10;96.50
11256;HTU21D;5685;52.384;13.420;2022-07-17T11:14:59;21.10;96.50
11256;HTU21D;5685;52.384;13.420;2022-07-17T11:18:03;21.10;96.60
11256;HTU21D;5685;52.384;13.420;2022-07-17T11:21:12;21.10;96.70
11256;HTU21D;5685;52.384;13.420;2022-07-17T11:24:14;21.10;96.60
11256;HTU21D;5685;52.384;13.420;2022-07-17T11:27:22;21.10;96.80
11256;HTU21D;5685;52.384;13.420;2022-07-17T11:30:26;21.10;96.70
11256;HTU21D;5685;52.384;13.420;2022-07-17T11:33:32;21.10;96.70
11256;HTU21D;5685;52.384;13.420;2022-07-17T11:36:35;21.10;96.80
11256;HTU21D;5685;52.384;13.420;2022-07-17T11:39:40;21.10;96.80
11256;HTU21D;5685;52.384;13.420;2022-07-17T11:42:44;21.10;96.80
11256;HTU21D;5685;52.384;13.420;2022-07-17T11:45:47;21.20;97.00
11256;HTU21D;5685;52.384;13.420;2022-07-17T11:48:51;21.10;96.90
11256;HTU21D;5685;52.384;13.420;2022-07-17T11:51:55;21.20;97.00
11256;HTU21D;5685;52.384;13.420;2022-07-17T11:54:58;21.20;97.00
11256;HTU21D;5685;52.384;13.420;2022-07-17T11:58:01;21.20;97.10
11256;HTU21D;5685;52.384;13.420;2022-07-17T12:01:04;21.20;97.10
11256;HTU21D;5685;52.384;13.420;2022-07-17T12:04:10;21.20;97.10
11256;HTU21D;5685;52.384;13.420;2022-07-17T12:07:13;21.20;97.20
11256;HTU21D;5685;52.384;13.420;2022-07-17T12:10:17;21.20;97.10
11256;HTU21D;5685;52.384;13.420;2022-07-17T12:13:22;21.20;97.10
11256;HTU21D;5685;52.384;13.420;2022-07-17T12:16:26;21.20;97.10
11256;HTU21D;5685;52.384;13.420;2022-07-17T12:19:31;21.20;97.10
11256;HTU21D;5685;52.384;13.420;2022-07-17T12:22:42;21.20;97.20
11256;HTU21D;5685;52.384;13.420;2022-07-17T12:25:45;21.30;97.30
11256;HTU21D;5685;52.384;13.420;2022-07-17T12:28:47;21.30;97.30
11256;HTU21D;5685;52.384;13.420;2022-07-17T12:32:00;21.30;97.30
11256;HTU21D;5685;52.384;13.420;2022-07-17T12:35:06;21.30;97.30
11256;HTU21D;5685;52.384;13.420;2022-07-17T12:38:09;21.30;97.30
11256;HTU21D;5685;52.384;13.420;2022-07-17T12:41:11;21.30;97.30
11256;HTU21D;5685;52.384;13.420;2022-07-17T12:44:13;21.30;97.30
11256;HTU21D;5685;52.384;13.420;2022-07-17T12:47:15;21.30;97.30
11256;HTU21D;5685;52.384;13.420;2022-07-17T12:50:19;21.30;97.30
11256;HTU21D;5685;52.384;13.420;2022-07-17T12:53:21;21.30;97.30
11256;HTU21D;5685;52.384;13.420;2022-07-17T12:56:24;21.40;97.30
11256;HTU21D;5685;52.384;13.420;2022-07-17T12:59:27;21.40;97.30
11256;HTU21D;5685;52.384;13.420;2022-07-17T13:02:30;21.40;97.30
11256;HTU21D;5685;52.384;13.420;2022-07-17T13:05:33;21.40;97.30
11256;HTU21D;5685;52.384;13.420;2022-07-17T13:08:36;21.40;97.30
11256;HTU21D;5685;52.384;13.420;2022-07-17T13:11:40;21.40;97.30
11256;HTU21D;5685;52.384;13.420;2022-07-17T13:14:42;21.40;97.30
11256;HTU21D;5685;52.384;13.420;2022-07-17T13:17:44;21.40;97.30
11256;HTU21D;5685;52.384;13.420;2022-07-17T13:20:47;21.40;97.30
11256;HTU21D;5685;52.384;13.420;2022-07-17T13:23:50;21.40;97.30
11256;HTU21D;5685;52.384;13.420;2022-07-17T13:26:52;21.40;97.30
11256;HTU21D;5685;52.384;13.420;2022-07-17T13:29:54;21.40;97.30
11256;HTU21D;5685;52.384;13.420;2022-07-17T13:32:56;21.50;97.40
11256;HTU21D;5685;52.384;13.420;2022-07-17T13:36:00;21.50;97.40
11256;HTU21D;5685;52.384;13.420;2022-07-17T13:39:03;21.50;97.80
11256;HTU21D;5685;52.384;13.420;2022-07-17T13:42:05;21.50;97.40
11256;HTU21D;5685;52.384;13.420;2022-07-17T13:45:09;21.50;97.40
11256;HTU21D;5685;52.384;13.420;2022-07-17T13:48:11;21.50;97.40
11256;HTU21D;5685;52.384;13.420;2022-07-17T13:51:16;21.50;97.50
11256;HTU21D;5685;52.384;13.420;2022-07-17T13:54:18;21.60;97.50
11256;HTU21D;5685;52.384;13.420;2022-07-17T13:57:20;21.50;97.50
11256;HTU21D;5685;52.384;13.420;2022-07-17T14:00:22;21.60;97.50
11256;HTU21D;5685;52.384;13.420;2022-07-17T14:03:24;21.60;97.50
11256;HTU21D;5685;52.384;13.420;2022-07-17T14:06:27;21.60;97.50
11256;HTU21D;5685;52.384;13.420;2022-07-17T14:09:29;21.60;97.50
11256;HTU21D;5685;52.384;13.420;2022-07-17T14:12:31;21.60;97.50
11256;HTU21D;5685;52.384;13.420;2022-07-17T14:15:34;21.60;97.50
11256;HTU21D;5685;52.384;13.420;2022-07-17T14:18:36;21.60;97.50
11256;HTU21D;5685;52.384;13.420;2022-07-17T14:21:59;21.60;97.50
11256;HTU21D;5685;52.384;13.420;2022-07-17T14:25:01;21.70;97.50
11256;HTU21D;5685;52.384;13.420;2022-07-17T14:28:04;21.70;97.50
11256;HTU21D;5685;52.384;13.420;2022-07-17T14:31:06;21.70;97.50
11256;HTU21D;5685;52.384;13.420;2022-07-17T14:34:07;21.70;97.50
11256;HTU21D;5685;52.384;13.420;2022-07-17T14:37:12;21.70;97.50
11256;HTU21D;5685;52.384;13.420;2022-07-17T14:40:14;21.70;97.50
11256;HTU21D;5685;52.384;13.420;2022-07-17T14:43:16;21.70;97.50
11256;HTU21D;5685;52.384;13.420;2022-07-17T14:46:18;21.70;97.50
11256;HTU21D;5685;52.384;13.420;2022-07-17T14:49:21;21.80;97.50
11256;HTU21D;5685;52.384;13.420;2022-07-17T14:52:24;21.80;97.50
11256;HTU21D;5685;52.384;13.420;2022-07-17T14:55:26;21.80;97.50
11256;HTU21D;5685;52.384;13.420;2022-07-17T14:58:28;21.80;97.50
11256;HTU21D;5685;52.384;13.420;2022-07-17T15:01:30;21.80;97.50
11256;HTU21D;5685;52.384;13.420;2022-07-17T15:04:33;21.80;97.50
11256;HTU21D;5685;52.384;13.420;2022-07-17T15:07:38;21.80;97.50
11256;HTU21D;5685;52.384;13.420;2022-07-17T15:10:40;21.80;97.50
11256;HTU21D;5685;52.384;13.420;2022-07-17T15:13:42;21.80;97.40
11256;HTU21D;5685;52.384;13.420;2022-07-17T15:16:44;21.90;97.50
11256;HTU21D;5685;52.384;13.420;2022-07-17T15:19:47;21.80;97.40
11256;HTU21D;5685;52.384;13.420;2022-07-17T15:22:50;21.90;97.50
11256;HTU21D;5685;52.384;13.420;2022-07-17T15:25:52;21.90;97.50
11256;HTU21D;5685;52.384;13.420;2022-07-17T15:28:55;21.90;97.50
11256;HTU21D;5685;52.384;13.420;2022-07-17T15:31:57;21.90;97.50
11256;HTU21D;5685;52.384;13.420;2022-07-17T15:34:59;21.90;97.50
11256;HTU21D;5685;52.384;13.420;2022-07-17T15:38:04;21.90;97.40
11256;HTU21D;5685;52.384;13.420;2022-07-17T15:41:07;21.90;97.50
11256;HTU21D;5685;52.384;13.420;2022-07-17T15:44:09;22.00;97.50
11256;HTU21D;5685;52.384;13.420;2022-07-17T15:47:11;22.00;97.50
11256;HTU21D;5685;52.384;13.420;2022-07-17T15:50:13;22.00;97.50
11256;HTU21D;5685;52.384;13.420;2022-07-17T15:53:17;22.00;97.50
11256;HTU21D;5685;52.384;13.420;2022-07-17T15:56:20;22.00;97.40
11256;HTU21D;5685;52.384;13.420;2022-07-17T15:59:22;22.00;97.80
11256;HTU21D;5685;52.384;13.420;2022-07-17T16:02:24;22.10;97.50
11256;HTU21D;5685;52.384;13.420;2022-07-17T16:05:26;22.10;97.40
11256;HTU21D;5685;52.384;13.420;2022-07-17T16:08:30;22.10;97.40
11256;HTU21D;5685;52.384;13.420;2022-07-17T16:11:32;22.10;97.50
11256;HTU21D;5685;52.384;13.420;2022-07-17T16:14:34;22.10;97.40
11256;HTU21D;5685;52.384;13.420;2022-07-17T16:17:37;22.10;97.40
11256;HTU21D;5685;52.384;13.420;2022-07-17T16:20:39;22.10;97.40
11256;HTU21D;5685;52.384;13.420;2022-07-17T16:23:44;22.10;97.40
11256;HTU21D;5685;52.384;13.420;2022-07-17T16:26:46;22.10;97.40
11256;HTU21D;5685;52.384;13.420;2022-07-17T16:29:48;22.10;97.40
11256;HTU21D;5685;52.384;13.420;2022-07-17T16:32:50;22.20;97.40
11256;HTU21D;5685;52.384;13.420;2022-07-17T16:35:53;22.20;97.40
11256;HTU21D;5685;52.384;13.420;2022-07-17T16:38:57;22.20;97.40
11256;HTU21D;5685;52.384;13.420;2022-07-17T16:41:59;22.20;97.40
11256;HTU21D;5685;52.384;13.420;2022-07-17T16:45:01;22.20;97.40
11256;HTU21D;5685;52.384;13.420;2022-07-17T16:48:05;22.20;97.40
11256;HTU21D;5685;52.384;13.420;2022-07-17T16:51:07;22.20;97.40
11256;HTU21D;5685;52.384;13.420;2022-07-17T16:54:11;22.30;97.40
11256;HTU21D;5685;52.384;13.420;2022-07-17T16:57:13;22.20;97.40
11256;HTU21D;5685;52.384;13.420;2022-07-17T17:00:15;22.30;97.40
11256;HTU21D;5685;52.384;13.420;2022-07-17T17:03:18;22.30;97.40
11256;HTU21D;5685;52.384;13.420;2022-07-17T17:06:20;22.30;97.40
11256;HTU21D;5685;52.384;13.420;2022-07-17T17:09:24;22.30;97.40
11256;HTU21D;5685;52.384;13.420;2022-07-17T17:12:26;22.30;97.30
11256;HTU21D;5685;52.384;13.420;2022-07-17T17:15:28;22.30;97.30
11256;HTU21D;5685;52.384;13.420;2022-07-17T17:18:31;22.30;97.30
11256;HTU21D;5685;52.384;13.420;2022-07-17T17:21:33;22.30;97.30
11256;HTU21D;5685;52.384;13.420;2022-07-17T17:24:37;22.30;97.30
11256;HTU21D;5685;52.384;13.420;2022-07-17T17:27:40;22.30;97.30
11256;HTU21D;5685;52.384;13.420;2022-07-17T17:30:42;22.40;97.30
11256;HTU21D;5685;52.384;13.420;2022-07-17T17:33:44;22.40;97.20
11256;HTU21D;5685;52.384;13.420;2022-07-17T17:36:46;22.40;97.20
11256;HTU21D;5685;52.384;13.420;2022-07-17T17:39:50;22.40;97.20
11256;HTU21D;5685;52.384;13.420;2022-07-17T17:42:52;22.40;97.20
11256;HTU21D;5685;52.384;13.420;2022-07-17T17:45:54;22.40;97.20
11256;HTU21D;5685;52.384;13.420;2022-07-17T17:48:58;22.40;97.20
11256;HTU21D;5685;52.384;13.420;2022-07-17T17:52:01;22.40;97.20
11256;HTU21D;5685;52.384;13.420;2022-07-17T17:55:06;22.40;97.20
11256;HTU21D;5685;52.384;13.420;2022-07-17T17:58:09;22.50;97.20
11256;HTU21D;5685;52.384;13.420;2022-07-17T18:01:11;22.40;97.20
11256;HTU21D;5685;52.384;13.420;2022-07-17T18:04:13;22.50;97.20
11256;HTU21D;5685;52.384;13.420;2022-07-17T18:07:16;22.50;97.20
11256;HTU21D;5685;52.384;13.420;2022-07-17T18:10:20;22.50;97.20
11256;HTU21D;5685;52.384;13.420;2022-07-17T18:13:23;22.50;97.20
11256;HTU21D;5685;52.384;13.420;2022-07-17T18:16:25;22.50;97.20
11256;HTU21D;5685;52.384;13.420;2022-07-17T18:19:27;22.50;97.20
11256;HTU21D;5685;52.384;13.420;2022-07-17T18:22:30;22.50;97.20
11256;HTU21D;5685;52.384;13.420;2022-07-17T18:25:33;22.50;97.20
11256;HTU21D;5685;52.384;13.420;2022-07-17T18:28:36;22.50;97.20
11256;HTU21D;5685;52.384;13.420;2022-07-17T18:31:38;22.50;97.20
11256;HTU21D;5685;52.384;13.420;2022-07-17T18:34:40;22.50;97.20
11256;HTU21D;5685;52.384;13.420;2022-07-17T18:37:43;22.50;97.20
11256;HTU21D;5685;52.384;13.420;2022-07-17T18:40:46;22.50;97.20
11256;HTU21D;5685;52.384;13.420;2022-07-17T18:43:52;22.60;97.60
11256;HTU21D;5685;52.384;13.420;2022-07-17T18:46:54;22.60;97.60
11256;HTU21D;5685;52.384;13.420;2022-07-17T18:49:56;22.60;97.20
11256;HTU21D;5685;52.384;13.420;2022-07-17T18:52:58;22.60;97.20
11256;HTU21D;5685;52.384;13.420;2022-07-17T18:56:03;22.60;97.20
11256;HTU21D;5685;52.384;13.420;2022-07-17T18:59:05;22.60;97.20